Time;durP1;ratioP1;P1;durP2;ratioP2;P2;SDS_P1;SDS_P2;PMS_P1;PMS_P2;Temp;Humidity;BMP_temperature;BMP_pressure;BME280_temperature;BME280_humidity;BME280_pressure;Samples;Min_cycle;Max_cycle;Signal;HPM_P1;HPM_P2
2020/12/27 00:00:13;;;;;;;11.52;6.85;;;;;;;1.35;81.18;100534.59;4980024;28;20418;-58
2020/12/27 00:02:40;;;;;;;12.30;7.22;;;;;;;1.38;81.40;100531.06;5001027;28;20089;-59
2020/12/27 00:05:07;;;;;;;13.10;6.68;;;;;;;1.24;81.83;100531.38;4999772;28;20061;-59
2020/12/27 00:07:34;;;;;;;11.55;6.65;;;;;;;1.25;81.73;100520.13;4996235;28;20052;-60
2020/12/27 00:10:04;;;;;;;12.02;6.55;;;;;;;1.19;81.50;100509.91;4978508;28;20089;-61
2020/12/27 00:12:31;;;;;;;19.70;7.95;;;;;;;1.08;81.35;100511.84;5001615;28;20073;-57
2020/12/27 00:14:57;;;;;;;12.80;6.90;;;;;;;1.17;81.62;100503.88;4999876;28;20209;-60
2020/12/27 00:17:24;;;;;;;12.73;7.85;;;;;;;1.09;81.90;100503.22;5010143;28;20108;-60
2020/12/27 00:19:51;;;;;;;11.70;6.60;;;;;;;1.19;82.09;100496.94;4994912;28;20202;-60
2020/12/27 00:22:21;;;;;;;11.25;6.97;;;;;;;1.15;81.64;100490.09;4996718;28;20050;-60
2020/12/27 00:24:48;;;;;;;12.55;6.35;;;;;;;1.12;82.01;100482.38;5001297;28;20464;-59
2020/12/27 00:27:14;;;;;;;12.45;7.32;;;;;;;1.14;81.83;100480.63;5002853;28;20046;-58
2020/12/27 00:29:41;;;;;;;16.33;7.88;;;;;;;1.16;81.12;100471.06;4997627;28;20054;-60
2020/12/27 00:32:08;;;;;;;11.75;7.07;;;;;;;0.96;81.68;100474.13;5001780;28;20269;-58
2020/12/27 00:34:51;;;;;;;12.65;7.10;;;;;;;0.94;81.77;100468.94;5005060;28;20411;-58
2020/12/27 00:37:18;;;;;;;11.35;6.65;;;;;;;0.91;82.00;100469.03;5007803;28;20293;-59
2020/12/27 00:39:45;;;;;;;12.00;7.88;;;;;;;0.86;82.13;100473.47;5005380;28;20065;-59
2020/12/27 00:42:12;;;;;;;15.63;8.13;;;;;;;0.90;81.66;100469.94;5003866;28;20058;-59
2020/12/27 00:44:38;;;;;;;18.08;7.93;;;;;;;0.92;82.47;100470.72;5004582;28;20469;-59
2020/12/27 00:47:05;;;;;;;13.55;7.28;;;;;;;0.88;82.35;100466.50;5001016;28;20054;-61
2020/12/27 00:49:32;;;;;;;16.48;7.65;;;;;;;0.90;81.64;100456.09;5004309;28;20526;-57
2020/12/27 00:51:58;;;;;;;12.68;7.90;;;;;;;1.10;81.75;100455.66;4998984;28;20069;-57
2020/12/27 00:54:25;;;;;;;11.73;7.55;;;;;;;0.94;81.96;100447.34;4999684;28;20053;-61
2020/12/27 00:56:52;;;;;;;16.45;7.97;;;;;;;0.89;81.88;100441.44;4997713;28;20057;-58
2020/12/27 00:59:19;;;;;;;9.68;7.03;;;;;;;0.84;82.04;100431.16;4997232;28;20142;-57
2020/12/27 01:01:45;;;;;;;16.45;7.95;;;;;;;0.69;82.05;100421.16;4995904;28;20089;-61
2020/12/27 01:04:13;;;;;;;12.52;7.50;;;;;;;0.94;81.97;100429.22;5003795;28;20053;-59
2020/12/27 01:06:40;;;;;;;14.82;7.43;;;;;;;0.93;81.70;100428.38;5001289;28;20133;-58
2020/12/27 01:09:06;;;;;;;10.43;6.95;;;;;;;0.90;81.37;100419.81;5002484;28;20048;-59
2020/12/27 01:11:33;;;;;;;13.20;7.57;;;;;;;0.84;81.81;100417.34;5011315;28;20065;-57
2020/12/27 01:14:00;;;;;;;14.90;6.65;;;;;;;0.79;81.97;100414.88;5013969;28;20077;-62
2020/12/27 01:16:26;;;;;;;12.48;8.07;;;;;;;0.76;82.07;100404.56;5011556;28;20064;-60
2020/12/27 01:18:53;;;;;;;15.43;6.72;;;;;;;0.72;82.89;100398.63;5006880;28;20057;-61
2020/12/27 01:21:27;;;;;;;13.80;7.43;;;;;;;0.75;81.48;100393.34;4997894;28;20064;-63
2020/12/27 01:23:55;;;;;;;12.27;6.88;;;;;;;0.77;81.50;100388.16;5000427;28;20073;-61
2020/12/27 01:26:29;;;;;;;12.55;7.25;;;;;;;0.85;81.49;100393.16;4996974;28;20473;-58
2020/12/27 01:28:56;;;;;;;11.63;6.45;;;;;;;0.88;81.09;100388.75;5005301;28;20423;-59
2020/12/27 01:31:23;;;;;;;12.82;7.32;;;;;;;0.78;81.65;100376.91;5008709;28;20053;-57
2020/12/27 01:33:49;;;;;;;14.32;7.22;;;;;;;0.89;81.68;100369.72;5004343;28;20250;-58
2020/12/27 01:36:24;;;;;;;10.23;6.28;;;;;;;0.90;80.69;100373.16;4989953;28;20062;-59
2020/12/27 01:38:51;;;;;;;13.80;7.03;;;;;;;0.92;81.00;100372.25;5007890;28;20084;-61
2020/12/27 01:41:20;;;;;;;13.25;6.28;;;;;;;0.84;81.32;100363.78;4993000;28;20080;-56
2020/12/27 01:44:06;;;;;;;12.70;6.90;;;;;;;0.80;81.13;100346.59;5008555;28;20060;-59
2020/12/27 01:46:34;;;;;;;15.35;6.60;;;;;;;0.71;81.31;100333.88;5002471;28;20088;-59
2020/12/27 01:49:01;;;;;;;14.57;5.75;;;;;;;0.83;81.11;100333.59;5003261;28;20046;-58
2020/12/27 01:51:28;;;;;;;10.88;6.68;;;;;;;0.75;81.03;100319.97;5011123;28;20087;-60
2020/12/27 01:53:55;;;;;;;14.15;6.20;;;;;;;0.77;81.15;100318.19;5002660;28;20553;-59
2020/12/27 01:56:27;;;;;;;12.88;6.55;;;;;;;0.68;81.44;100321.84;4992670;28;20058;-62
2020/12/27 01:59:02;;;;;;;11.07;6.38;;;;;;;0.62;81.25;100316.78;4999865;28;20479;-59
2020/12/27 02:01:30;;;;;;;9.43;5.97;;;;;;;0.74;80.93;100307.91;5000647;28;20062;-59
2020/12/27 02:03:59;;;;;;;12.73;6.43;;;;;;;0.63;81.39;100307.28;5003500;28;20073;-60
2020/12/27 02:06:26;;;;;;;11.60;6.40;;;;;;;0.76;81.29;100301.78;5003052;28;20081;-60
2020/12/27 02:08:53;;;;;;;10.93;7.13;;;;;;;0.68;81.64;100288.19;5000878;28;20054;-62
2020/12/27 02:11:20;;;;;;;10.68;6.13;;;;;;;0.69;81.33;100289.88;5011744;23;20038;-54
2020/12/27 02:13:48;;;;;;;12.25;6.93;;;;;;;0.69;81.17;100289.03;4990843;28;20054;-56
2020/12/27 02:16:20;;;;;;;13.48;5.95;;;;;;;0.71;80.75;100289.81;5007284;28;20064;-55
2020/12/27 02:18:51;;;;;;;11.18;6.60;;;;;;;0.74;81.27;100277.66;5009552;28;20053;-53
2020/12/27 02:21:18;;;;;;;9.73;6.72;;;;;;;0.67;81.47;100267.47;5005131;28;20541;-56
2020/12/27 02:23:47;;;;;;;16.25;6.70;;;;;;;0.71;80.56;100264.75;4995877;28;20061;-59
2020/12/27 02:26:14;;;;;;;10.25;6.60;;;;;;;0.62;80.75;100256.38;4989496;28;20054;-56
2020/12/27 02:28:41;;;;;;;9.63;5.75;;;;;;;0.65;80.88;100262.34;5006675;28;20556;-54
2020/12/27 02:31:08;;;;;;;10.88;6.53;;;;;;;0.65;81.69;100253.72;4997956;28;20053;-49
2020/12/27 02:33:35;;;;;;;11.45;6.88;;;;;;;0.65;81.25;100244.19;5006833;28;20222;-57
2020/12/27 02:36:10;;;;;;;14.43;6.82;;;;;;;0.70;81.14;100234.56;5010663;28;20085;-52
2020/12/27 02:38:37;;;;;;;11.70;6.10;;;;;;;0.65;81.31;100225.22;5007288;28;20057;-53
2020/12/27 02:41:12;;;;;;;9.25;5.60;;;;;;;0.71;80.79;100214.69;5007172;28;20156;-52
2020/12/27 02:43:39;;;;;;;16.75;6.88;;;;;;;0.69;80.46;100213.91;5001418;28;20420;-53
2020/12/27 02:46:09;;;;;;;8.93;5.82;;;;;;;0.73;80.67;100213.78;5014765;28;20060;-56
2020/12/27 02:48:36;;;;;;;10.63;5.43;;;;;;;0.78;80.44;100200.72;4996040;28;20046;-58
2020/12/27 02:51:03;;;;;;;10.18;6.00;;;;;;;0.67;80.45;100200.13;5010238;28;20330;-56
2020/12/27 02:53:29;;;;;;;11.45;6.63;;;;;;;0.63;80.56;100194.19;4998403;28;20149;-53
2020/12/27 02:55:56;;;;;;;10.45;6.20;;;;;;;0.68;80.43;100184.56;5008440;28;20113;-53
2020/12/27 02:58:23;;;;;;;9.40;5.82;;;;;;;0.66;80.47;100190.66;5011969;28;20518;-54
2020/12/27 03:00:49;;;;;;;8.32;5.53;;;;;;;0.71;80.26;100181.88;5008405;28;20073;-56
2020/12/27 03:03:16;;;;;;;9.40;5.80;;;;;;;0.73;79.71;100169.72;5002542;28;20136;-56
2020/12/27 03:05:43;;;;;;;8.00;5.30;;;;;;;0.74;79.91;100158.47;5019301;28;20045;-56
2020/12/27 03:08:09;;;;;;;9.25;5.38;;;;;;;0.77;79.79;100144.59;4992195;28;20046;-55
2020/12/27 03:10:36;;;;;;;9.85;5.10;;;;;;;0.76;79.12;100146.31;5015431;28;20077;-57
2020/12/27 03:13:03;;;;;;;9.43;5.00;;;;;;;0.76;79.22;100150.66;5001785;28;20057;-56
2020/12/27 03:15:29;;;;;;;6.30;4.72;;;;;;;0.70;79.57;100148.22;4994152;28;20056;-50
2020/12/27 03:17:57;;;;;;;6.75;4.35;;;;;;;0.85;78.88;100145.22;5009523;28;20127;-56
2020/12/27 03:20:23;;;;;;;7.57;5.22;;;;;;;0.85;78.66;100129.69;4988903;28;20042;-56
2020/12/27 03:22:50;;;;;;;8.43;4.38;;;;;;;0.70;79.04;100123.19;5008602;28;20064;-53
2020/12/27 03:25:17;;;;;;;10.02;4.78;;;;;;;0.75;78.89;100123.91;5010030;28;20046;-57
2020/12/27 03:27:43;;;;;;;7.75;5.05;;;;;;;0.79;78.55;100108.28;5009853;28;20125;-56
2020/12/27 03:30:10;;;;;;;9.27;4.95;;;;;;;0.70;78.69;100112.81;5008346;28;20395;-56
2020/12/27 03:32:37;;;;;;;8.00;5.60;;;;;;;0.76;78.46;100104.88;5017054;28;20078;-58
2020/12/27 03:35:03;;;;;;;14.95;5.10;;;;;;;0.78;79.10;100101.41;5011886;28;20069;-57
2020/12/27 03:37:35;;;;;;;7.50;4.53;;;;;;;0.67;78.63;100101.69;5008234;28;20586;-57
2020/12/27 03:40:04;;;;;;;12.48;4.82;;;;;;;0.65;79.24;100098.28;5007951;28;20479;-56
2020/12/27 03:42:31;;;;;;;8.52;4.30;;;;;;;0.68;78.69;100090.44;5015628;28;20148;-55
2020/12/27 03:44:58;;;;;;;6.97;4.00;;;;;;;0.73;78.49;100094.59;4988425;28;20053;-58
2020/12/27 03:47:24;;;;;;;8.27;4.63;;;;;;;0.67;78.85;100102.53;5014389;28;20057;-56
2020/12/27 03:49:51;;;;;;;10.70;4.65;;;;;;;0.73;78.25;100092.00;5006126;28;20149;-55
2020/12/27 03:52:18;;;;;;;9.38;4.30;;;;;;;0.64;78.20;100089.66;5014086;28;20046;-51
2020/12/27 03:54:44;;;;;;;8.60;4.45;;;;;;;0.69;77.31;100086.97;5010657;28;20250;-57
2020/12/27 03:57:11;;;;;;;7.43;4.43;;;;;;;0.73;77.72;100081.66;4992785;28;20064;-54
2020/12/27 03:59:38;;;;;;;7.53;4.88;;;;;;;0.74;78.06;100079.91;5015777;28;20430;-57
2020/12/27 04:02:04;;;;;;;7.57;4.30;;;;;;;0.67;77.99;100078.34;5014216;28;20568;-53
2020/12/27 04:04:31;;;;;;;8.35;4.25;;;;;;;0.77;77.73;100072.06;5007976;28;20057;-58
2020/12/27 04:07:04;;;;;;;12.40;5.03;;;;;;;0.75;77.69;100071.22;4996315;28;20061;-55
2020/12/27 04:09:31;;;;;;;8.43;5.05;;;;;;;0.71;77.49;100064.44;5014639;28;20100;-54
2020/12/27 04:11:58;;;;;;;12.27;5.35;;;;;;;0.69;77.58;100056.72;5011141;28;20069;-54
2020/12/27 04:14:24;;;;;;;8.63;4.43;;;;;;;0.66;77.37;100051.63;5004114;28;20060;-55
2020/12/27 04:16:51;;;;;;;8.07;4.65;;;;;;;0.74;77.54;100039.31;5012801;28;20049;-55
2020/12/27 04:19:18;;;;;;;11.07;5.18;;;;;;;0.78;76.90;100024.53;5008339;28;20046;-55
2020/12/27 04:21:45;;;;;;;10.43;4.88;;;;;;;0.76;77.51;100023.69;5005260;28;20045;-55
2020/12/27 04:24:12;;;;;;;10.70;5.50;;;;;;;0.69;77.23;100011.84;5002906;28;20057;-57
2020/12/27 04:26:39;;;;;;;10.43;5.82;;;;;;;0.69;77.32;100010.09;5018233;28;20576;-58
2020/12/27 04:29:06;;;;;;;13.15;5.57;;;;;;;0.62;77.26;100016.31;5010173;28;20049;-52
2020/12/27 04:31:33;;;;;;;8.88;4.43;;;;;;;0.67;76.99;100003.25;5019239;28;20613;-52
2020/12/27 04:34:00;;;;;;;7.35;4.35;;;;;;;0.66;76.79;99993.78;5001560;28;20061;-52
2020/12/27 04:36:26;;;;;;;11.70;5.07;;;;;;;0.56;77.30;100003.56;5008805;28;20053;-53
2020/12/27 04:38:53;;;;;;;8.10;4.55;;;;;;;0.59;77.39;99980.16;5000905;28;20078;-52
2020/12/27 04:41:20;;;;;;;9.20;5.00;;;;;;;0.70;77.20;99974.66;5009837;28;20057;-54
2020/12/27 04:43:47;;;;;;;9.30;4.32;;;;;;;0.65;77.04;99964.44;5006911;28;20064;-54
2020/12/27 04:46:16;;;;;;;7.53;4.43;;;;;;;0.63;76.91;99957.59;4997776;28;20133;-53
2020/12/27 04:48:44;;;;;;;12.18;5.40;;;;;;;0.68;77.25;99958.34;5010703;28;20350;-54
2020/12/27 04:51:12;;;;;;;9.30;5.85;;;;;;;0.64;76.63;99957.56;5010981;28;20065;-54
2020/12/27 04:53:40;;;;;;;9.00;4.55;;;;;;;0.63;76.43;99937.75;5008028;28;20340;-54
2020/12/27 04:56:07;;;;;;;11.82;5.65;;;;;;;0.65;76.51;99941.13;4992805;28;20050;-58
2020/12/27 04:58:34;;;;;;;9.13;4.80;;;;;;;0.70;76.43;99939.25;5016307;28;20437;-58
2020/12/27 05:01:01;;;;;;;10.00;4.93;;;;;;;0.72;76.20;99934.88;5009635;28;20077;-55
2020/12/27 05:03:28;;;;;;;7.53;4.85;;;;;;;0.65;75.93;99929.91;4993245;28;20139;-56
2020/12/27 05:05:55;;;;;;;11.77;4.60;;;;;;;0.68;75.87;99932.44;4997446;28;20062;-54
2020/12/27 05:08:22;;;;;;;7.90;5.18;;;;;;;0.61;76.26;99928.31;5006542;28;20053;-56
2020/12/27 05:10:49;;;;;;;7.20;4.70;;;;;;;0.61;76.50;99930.91;5012204;28;20061;-56
2020/12/27 05:13:16;;;;;;;14.23;5.57;;;;;;;0.61;76.49;99925.72;5011818;28;20084;-54
2020/12/27 05:15:44;;;;;;;10.88;5.35;;;;;;;0.48;76.62;99931.25;5011267;28;20134;-57
2020/12/27 05:18:11;;;;;;;8.57;5.57;;;;;;;0.55;77.20;99929.34;5008672;28;20050;-54
2020/12/27 05:20:41;;;;;;;12.77;5.70;;;;;;;0.48;76.79;99918.28;5006618;28;20061;-53
2020/12/27 05:23:08;;;;;;;13.38;5.60;;;;;;;0.52;76.37;99920.81;4994885;28;20050;-55
2020/12/27 05:25:38;;;;;;;13.90;5.53;;;;;;;0.57;76.74;99922.38;5012407;28;20053;-58
2020/12/27 05:28:08;;;;;;;9.30;4.70;;;;;;;0.43;76.70;99915.00;4997355;28;20064;-54
2020/12/27 05:30:36;;;;;;;8.40;5.03;;;;;;;0.48;77.05;99917.44;5008063;28;20370;-57
2020/12/27 05:33:15;;;;;;;10.57;4.70;;;;;;;0.40;76.96;99901.28;5014984;28;20053;-55
2020/12/27 05:35:43;;;;;;;14.27;6.03;;;;;;;0.44;77.00;99890.78;5009235;28;20052;-54
2020/12/27 05:38:10;;;;;;;10.43;5.50;;;;;;;0.33;77.21;99879.91;4988727;28;20056;-59
2020/12/27 05:40:39;;;;;;;8.90;5.10;;;;;;;0.32;77.85;99873.06;4987192;28;20046;-54
2020/12/27 05:43:16;;;;;;;11.15;5.55;;;;;;;0.35;77.49;99872.94;5009512;28;20054;-55
2020/12/27 05:45:44;;;;;;;8.05;5.18;;;;;;;0.34;77.63;99860.91;5008263;28;20050;-54
2020/12/27 05:48:11;;;;;;;10.55;5.40;;;;;;;0.37;77.48;99863.41;5007460;28;20054;-54
2020/12/27 05:50:42;;;;;;;9.80;5.55;;;;;;;0.29;77.37;99865.38;4989466;28;20434;-55
2020/12/27 05:53:22;;;;;;;12.20;5.70;;;;;;;0.25;77.50;99856.84;4994744;28;20058;-54
2020/12/27 05:55:53;;;;;;;7.95;5.38;;;;;;;0.22;77.73;99853.47;5007441;28;20153;-55
2020/12/27 05:58:24;;;;;;;10.38;5.43;;;;;;;0.33;77.32;99845.41;5011646;28;20054;-55
2020/12/27 06:00:52;;;;;;;10.68;5.82;;;;;;;0.23;77.61;99835.34;5009031;28;20554;-58
2020/12/27 06:03:29;;;;;;;9.57;5.30;;;;;;;0.15;77.82;99820.91;5004956;28;20576;-58
2020/12/27 06:05:56;;;;;;;11.20;5.63;;;;;;;0.16;78.18;99815.69;4990158;28;20072;-57
2020/12/27 06:08:27;;;;;;;10.18;5.95;;;;;;;0.23;77.18;99809.44;5005098;28;20046;-53
2020/12/27 06:10:56;;;;;;;11.48;4.85;;;;;;;0.20;77.38;99793.16;5008063;28;20084;-54
2020/12/27 06:13:25;;;;;;;11.07;5.30;;;;;;;0.20;77.28;99794.00;5000302;28;20061;-52
2020/12/27 06:15:59;;;;;;;13.45;5.47;;;;;;;0.22;77.76;99773.25;5006746;28;20137;-55
2020/12/27 06:18:28;;;;;;;12.13;6.00;;;;;;;0.14;77.14;99768.31;5010527;28;20058;-53
2020/12/27 06:21:13;;;;;;;8.75;4.85;;;;;;;0.14;76.48;99770.06;5008086;28;20054;-57
2020/12/27 06:23:40;;;;;;;10.63;6.00;;;;;;;0.13;76.46;99776.09;5003476;28;20222;-54
2020/12/27 06:26:07;;;;;;;11.02;5.40;;;;;;;0.02;77.12;99762.66;5009438;28;20054;-54
2020/12/27 06:28:34;;;;;;;9.88;4.75;;;;;;;0.05;77.14;99765.16;5005510;28;20054;-55
2020/12/27 06:31:09;;;;;;;11.90;5.18;;;;;;;0.10;77.09;99750.34;5009518;28;20597;-54
2020/12/27 06:33:38;;;;;;;10.60;5.78;;;;;;;0.03;76.79;99743.63;4995991;28;20053;-56
2020/12/27 06:36:05;;;;;;;8.85;4.43;;;;;;;-0.01;76.75;99727.34;5009861;28;20477;-55
2020/12/27 06:38:39;;;;;;;11.38;5.13;;;;;;;0.01;76.80;99730.75;4983000;28;20069;-56
2020/12/27 06:41:08;;;;;;;11.70;4.93;;;;;;;-0.01;76.17;99733.38;5011961;28;20168;-52
2020/12/27 06:43:42;;;;;;;9.48;4.70;;;;;;;0.00;76.74;99716.13;4996436;28;20414;-55
2020/12/27 06:46:26;;;;;;;6.97;4.47;;;;;;;0.02;75.98;99721.25;5005391;28;20184;-55
2020/12/27 06:49:09;;;;;;;10.63;4.75;;;;;;;0.03;76.16;99717.75;5007990;28;20426;-51
2020/12/27 06:51:38;;;;;;;9.45;4.22;;;;;;;0.02;75.83;99716.91;5011536;28;20438;-55
2020/12/27 06:54:04;;;;;;;8.30;4.75;;;;;;;0.07;75.48;99694.34;5004589;28;20050;-54
2020/12/27 06:56:41;;;;;;;9.43;3.97;;;;;;;0.06;75.50;99707.31;5005683;28;20853;-51
2020/12/27 06:59:08;;;;;;;8.85;4.25;;;;;;;0.04;75.32;99701.34;5009521;28;20138;-52
2020/12/27 07:01:35;;;;;;;10.93;4.53;;;;;;;0.07;75.00;99683.97;5006135;28;20068;-55
2020/12/27 07:04:15;;;;;;;8.05;3.80;;;;;;;0.10;75.31;99670.13;5003100;28;20511;-56
2020/12/27 07:06:44;;;;;;;8.85;3.85;;;;;;;0.17;74.66;99671.59;5013716;28;20285;-54
2020/12/27 07:09:22;;;;;;;8.57;3.97;;;;;;;0.16;73.86;99655.22;5005772;28;20053;-56
2020/12/27 07:12:06;;;;;;;8.45;3.38;;;;;;;0.20;73.60;99674.09;4991151;28;20534;-57
2020/12/27 07:14:44;;;;;;;10.25;4.03;;;;;;;0.24;73.37;99660.16;5001229;28;20050;-51
2020/12/27 07:17:11;;;;;;;7.63;3.53;;;;;;;0.25;72.69;99667.88;5006086;28;20179;-55
2020/12/27 07:19:38;;;;;;;6.57;2.90;;;;;;;0.29;72.75;99663.44;5007116;28;20053;-56
2020/12/27 07:22:07;;;;;;;5.10;2.72;;;;;;;0.26;72.09;99663.53;5007912;28;20041;-56
2020/12/27 07:24:36;;;;;;;7.10;3.38;;;;;;;0.25;72.09;99652.34;5014525;28;20054;-58
2020/12/27 07:27:04;;;;;;;6.38;4.43;;;;;;;0.26;71.84;99645.41;5004060;28;20054;-56
2020/12/27 07:29:32;;;;;;;8.60;3.70;;;;;;;0.29;71.44;99650.50;4982626;28;20046;-56
2020/12/27 07:32:00;;;;;;;11.48;3.50;;;;;;;0.30;71.12;99651.34;4987991;28;20077;-57
2020/12/27 07:34:29;;;;;;;6.53;3.63;;;;;;;0.29;71.28;99650.50;5007763;28;20042;-53
2020/12/27 07:37:01;;;;;;;6.03;2.90;;;;;;;0.28;70.92;99651.41;5013918;28;20049;-57
2020/12/27 07:39:52;;;;;;;5.50;3.08;;;;;;;0.24;70.97;99636.88;5004773;28;20070;-55
2020/12/27 07:42:29;;;;;;;4.78;2.30;;;;;;;0.25;70.53;99629.03;5007355;28;20076;-54
2020/12/27 07:44:57;;;;;;;6.97;3.00;;;;;;;0.34;70.80;99630.47;4995174;28;20148;-54
2020/12/27 07:47:25;;;;;;;22.02;6.03;;;;;;;0.65;70.49;99612.16;5008020;28;20053;-56
2020/12/27 07:50:02;;;;;;;4.32;2.05;;;;;;;0.33;69.08;99615.84;5009978;28;20494;-58
2020/12/27 07:52:48;;;;;;;5.53;3.08;;;;;;;0.30;69.09;99617.69;5015581;28;20132;-56
2020/12/27 07:55:31;;;;;;;5.50;2.67;;;;;;;0.22;69.11;99603.25;4985740;28;20506;-53
2020/12/27 07:58:01;;;;;;;7.25;2.60;;;;;;;0.28;68.48;99599.63;4996514;28;20057;-54
2020/12/27 08:00:32;;;;;;;7.63;3.20;;;;;;;0.34;68.03;99594.25;5012850;28;20053;-57
2020/12/27 08:03:06;;;;;;;6.40;3.22;;;;;;;0.35;68.19;99588.16;5008294;28;20074;-54
2020/12/27 08:05:33;;;;;;;8.95;2.95;;;;;;;0.32;68.16;99585.69;5007066;28;20272;-51
2020/12/27 08:08:04;;;;;;;5.22;2.33;;;;;;;0.32;67.17;99577.09;4976197;28;20122;-56
2020/12/27 08:10:31;;;;;;;4.97;2.50;;;;;;;0.31;66.85;99583.13;5010554;28;20045;-55
2020/12/27 08:12:59;;;;;;;6.72;2.47;;;;;;;0.39;67.28;99583.72;5011863;23;20116;-60
2020/12/27 08:15:31;;;;;;;8.45;2.70;;;;;;;0.40;66.54;99593.19;5011910;28;20061;-57
2020/12/27 08:17:59;;;;;;;4.57;2.17;;;;;;;0.36;66.50;99584.69;5022832;28;20342;-59
2020/12/27 08:20:29;;;;;;;5.43;2.53;;;;;;;0.42;66.26;99589.66;5024948;28;20050;-61
2020/12/27 08:23:06;;;;;;;4.82;2.42;;;;;;;0.36;65.97;99584.69;5007447;28;20046;-61
2020/12/27 08:25:35;;;;;;;6.68;2.85;;;;;;;0.37;65.85;99595.91;5012413;28;20057;-55
2020/12/27 08:28:05;;;;;;;8.02;2.40;;;;;;;0.39;65.66;99589.75;5004882;28;20065;-58
2020/12/27 08:30:31;;;;;;;5.57;2.63;;;;;;;0.38;65.00;99582.88;5011792;28;20046;-60
2020/12/27 08:33:18;;;;;;;7.65;2.05;;;;;;;0.44;64.68;99577.50;5010319;28;20122;-58
2020/12/27 08:35:49;;;;;;;6.10;3.03;;;;;;;0.43;64.46;99586.16;5011875;28;20077;-59
2020/12/27 08:38:49;;;;;;;5.00;2.20;;;;;;;0.42;64.49;99568.94;4998311;28;20735;-58
2020/12/27 08:41:19;;;;;;;5.60;2.50;;;;;;;0.36;64.37;99582.09;5007474;28;20415;-58
2020/12/27 08:44:03;;;;;;;7.35;2.65;;;;;;;0.55;63.77;99576.28;4989691;28;20081;-59
2020/12/27 08:46:33;;;;;;;8.18;2.58;;;;;;;0.56;63.35;99573.66;5004541;28;20530;-59
2020/12/27 08:49:09;;;;;;;5.95;2.50;;;;;;;0.70;62.80;99558.47;5007110;28;20078;-60
2020/12/27 08:52:01;;;;;;;6.40;2.50;;;;;;;0.66;62.81;99580.19;4993352;28;20403;-59
2020/12/27 08:54:30;;;;;;;5.32;2.47;;;;;;;0.65;62.57;99569.88;5006498;28;20050;-60
2020/12/27 08:56:57;;;;;;;5.15;2.40;;;;;;;0.71;62.37;99564.47;5007546;28;20045;-60
2020/12/27 08:59:23;;;;;;;4.78;1.83;;;;;;;0.71;62.18;99572.25;5001770;28;20056;-59
2020/12/27 09:01:50;;;;;;;6.22;2.65;;;;;;;0.84;61.90;99562.31;5008522;28;20142;-59
2020/12/27 09:04:20;;;;;;;6.57;2.40;;;;;;;0.76;62.20;99555.63;5006574;28;20061;-62
2020/12/27 09:06:57;;;;;;;5.00;2.53;;;;;;;1.00;61.27;99569.47;5010456;28;20053;-56
2020/12/27 09:09:24;;;;;;;;;;;;;;;1.09;61.07;99577.81;4993208;28;20531;-55
2020/12/27 09:11:51;;;;;;;4.03;2.55;;;;;;;0.97;61.65;99579.09;5009612;28;19921;-60
2020/12/27 09:14:35;;;;;;;5.10;2.20;;;;;;;0.92;61.55;99576.66;5010354;28;20050;-60
2020/12/27 09:17:12;;;;;;;4.22;2.28;;;;;;;0.98;61.10;99584.22;4994353;28;20446;-60
2020/12/27 09:19:45;;;;;;;9.55;2.75;;;;;;;0.91;61.38;99585.34;4991752;28;20060;-60
2020/12/27 09:22:12;;;;;;;4.15;2.70;;;;;;;0.95;61.37;99581.75;4983759;28;20081;-60
2020/12/27 09:24:39;;;;;;;4.65;2.50;;;;;;;0.96;60.73;99573.06;5002206;28;20065;-59
2020/12/27 09:27:09;;;;;;;4.25;2.55;;;;;;;0.88;61.20;99572.50;5007850;28;20061;-62
2020/12/27 09:29:37;;;;;;;4.32;2.38;;;;;;;0.86;61.39;99571.72;5001158;28;20061;-58
2020/12/27 09:32:11;;;;;;;6.38;2.47;;;;;;;0.85;60.76;99561.41;5007702;28;20057;-64
2020/12/27 09:34:38;;;;;;;4.43;2.40;;;;;;;0.83;61.59;99553.69;4990007;28;20089;-57
2020/12/27 09:37:15;;;;;;;6.10;2.55;;;;;;;0.77;61.06;99540.97;5008230;28;20510;-59
2020/12/27 09:39:42;;;;;;;6.25;2.75;;;;;;;0.68;61.73;99552.50;5001242;28;20053;-55
2020/12/27 09:42:20;;;;;;;3.85;2.38;;;;;;;0.79;61.59;99539.16;5009830;28;20050;-58
2020/12/27 09:44:47;;;;;;;6.93;2.67;;;;;;;0.84;61.38;99546.75;5003957;28;20137;-59
2020/12/27 09:47:24;;;;;;;5.88;2.88;;;;;;;0.94;61.24;99533.41;5008458;28;20054;-60
2020/12/27 09:50:07;;;;;;;4.20;2.60;;;;;;;0.89;61.56;99537.06;5002414;28;20531;-61
2020/12/27 09:52:46;;;;;;;7.07;2.55;;;;;;;0.83;61.52;99525.19;5008282;28;20077;-58
2020/12/27 09:55:13;;;;;;;4.32;2.60;;;;;;;0.90;61.43;99516.31;4988082;28;20352;-57
2020/12/27 09:57:43;;;;;;;4.80;2.38;;;;;;;0.85;61.40;99500.06;4987660;28;20057;-61
2020/12/27 10:00:10;;;;;;;5.60;3.00;;;;;;;0.86;61.10;99506.09;5016951;28;20472;-58
2020/12/27 10:02:37;;;;;;;5.20;2.90;;;;;;;0.90;60.98;99500.75;4993129;28;20065;-61
2020/12/27 10:05:08;;;;;;;5.45;2.20;;;;;;;0.96;61.53;99489.31;5010348;28;20046;-61
2020/12/27 10:07:35;;;;;;;6.32;3.15;;;;;;;0.93;61.18;99476.47;5008376;28;20210;-60
2020/12/27 10:10:04;;;;;;;4.57;2.70;;;;;;;0.97;61.44;99475.44;5004224;28;20049;-57
2020/12/27 10:12:31;;;;;;;6.05;2.53;;;;;;;0.76;61.39;99467.56;5007185;28;20060;-59
2020/12/27 10:14:58;;;;;;;5.20;2.80;;;;;;;0.94;61.25;99462.59;4989713;28;20057;-59
2020/12/27 10:17:25;;;;;;;7.22;3.45;;;;;;;0.93;60.87;99466.94;5006849;28;20140;-59
2020/12/27 10:19:52;;;;;;;4.47;2.95;;;;;;;0.99;60.97;99476.22;5006144;28;20065;-62
2020/12/27 10:22:20;;;;;;;5.97;3.05;;;;;;;0.74;60.94;99456.44;4989905;28;20141;-60
2020/12/27 10:24:47;;;;;;;7.80;3.05;;;;;;;0.98;61.05;99462.41;5007525;28;20140;-60
2020/12/27 10:27:13;;;;;;;4.60;2.30;;;;;;;0.85;61.38;99461.19;5007199;28;20420;-62
2020/12/27 10:29:40;;;;;;;8.18;3.03;;;;;;;0.82;61.20;99458.75;5005538;28;20073;-61
2020/12/27 10:32:07;;;;;;;6.85;3.08;;;;;;;0.92;60.77;99461.81;5001540;28;20049;-62
2020/12/27 10:34:35;;;;;;;9.38;3.60;;;;;;;0.98;60.81;99454.63;5006968;28;20061;-61
2020/12/27 10:37:03;;;;;;;7.10;3.05;;;;;;;1.06;61.09;99451.75;4963180;28;20054;-62
2020/12/27 10:39:31;;;;;;;4.93;3.17;;;;;;;1.00;60.61;99429.53;5007200;28;20731;-59
2020/12/27 10:41:58;;;;;;;5.80;2.78;;;;;;;1.07;60.43;99413.72;4989167;28;20061;-62
2020/12/27 10:44:25;;;;;;;5.32;2.78;;;;;;;1.00;60.46;99403.63;5005517;28;20053;-61
2020/12/27 10:46:52;;;;;;;7.85;3.20;;;;;;;0.95;59.95;99395.19;4989597;28;20587;-61
2020/12/27 10:49:21;;;;;;;6.15;2.88;;;;;;;0.94;59.87;99383.09;5007067;28;20054;-58
2020/12/27 10:51:48;;;;;;;5.32;2.88;;;;;;;0.93;59.35;99385.75;4989474;28;20046;-63
2020/12/27 10:54:14;;;;;;;6.25;3.35;;;;;;;1.09;59.21;99379.09;5001481;28;20053;-59
2020/12/27 10:56:42;;;;;;;6.70;3.30;;;;;;;1.06;59.13;99361.06;5006997;28;20556;-59
2020/12/27 10:59:09;;;;;;;6.03;2.72;;;;;;;1.20;59.38;99366.53;5002984;28;20394;-61
2020/12/27 11:01:41;;;;;;;6.03;3.03;;;;;;;1.22;58.64;99362.13;5010148;28;20054;-62
2020/12/27 11:04:08;;;;;;;9.07;2.70;;;;;;;1.21;58.03;99360.41;5004858;28;20061;-59
2020/12/27 11:06:34;;;;;;;7.97;3.35;;;;;;;1.28;58.41;99366.22;5005538;28;20653;-59
2020/12/27 11:09:01;;;;;;;5.60;3.08;;;;;;;1.24;58.25;99354.28;4988674;28;20573;-62
2020/12/27 11:11:34;;;;;;;5.70;3.28;;;;;;;1.21;58.13;99338.84;5006783;28;20049;-58
2020/12/27 11:14:01;;;;;;;5.22;2.22;;;;;;;1.13;58.62;99349.53;4997701;28;20050;-59
2020/12/27 11:16:28;;;;;;;4.10;2.60;;;;;;;1.06;59.04;99329.97;5006016;28;20058;-60
2020/12/27 11:18:55;;;;;;;5.82;2.65;;;;;;;1.13;59.12;99335.75;5005904;28;20058;-60
2020/12/27 11:21:21;;;;;;;6.43;2.55;;;;;;;1.14;58.85;99316.69;5006967;28;20052;-60
2020/12/27 11:23:48;;;;;;;4.53;2.63;;;;;;;1.21;58.62;99307.72;5007844;28;20054;-61
2020/12/27 11:26:17;;;;;;;5.35;2.50;;;;;;;1.15;58.82;99302.81;5010952;28;20054;-61
2020/12/27 11:28:44;;;;;;;7.82;2.80;;;;;;;1.22;59.01;99304.25;5003988;28;20056;-59
2020/12/27 11:31:13;;;;;;;4.38;2.50;;;;;;;1.07;58.86;99300.53;5010933;28;20068;-60
2020/12/27 11:33:40;;;;;;;8.25;2.97;;;;;;;1.34;60.02;99297.69;5003315;28;20069;-60
2020/12/27 11:36:09;;;;;;;5.60;2.70;;;;;;;1.30;58.47;99275.41;5012007;28;20052;-61
2020/12/27 11:38:36;;;;;;;4.75;2.50;;;;;;;1.16;58.25;99257.84;4993219;28;20065;-60
2020/12/27 11:41:03;;;;;;;6.93;2.78;;;;;;;1.20;58.44;99267.19;5010932;28;20049;-62
2020/12/27 11:43:29;;;;;;;8.63;2.92;;;;;;;1.26;58.05;99256.53;5004197;28;20501;-61
2020/12/27 11:45:58;;;;;;;4.85;2.35;;;;;;;1.15;57.20;99243.22;5006196;28;20050;-62